Time;durP1;ratioP1;P1;durP2;ratioP2;P2;SDS_P1;SDS_P2;PMS_P1;PMS_P2;Temp;Humidity;BMP_temperature;BMP_pressure;BME280_temperature;BME280_humidity;BME280_pressure;Samples;Min_cycle;Max_cycle;Signal;HPM_P1;HPM_P2
2021/10/19 00:01:50;;;;;;;1.95;1.70;;;16.90;97.10;;;;;;4934236;29;20048;-60
2021/10/19 00:04:17;;;;;;;1.85;1.63;;;17.00;97.00;;;;;;4934165;29;20105;-61
2021/10/19 00:06:44;;;;;;;2.53;1.40;;;16.90;97.00;;;;;;4933275;29;20047;-59
2021/10/19 00:09:11;;;;;;;6.47;1.80;;;16.90;97.00;;;;;;4939676;29;20083;-59
2021/10/19 00:11:37;;;;;;;4.60;1.83;;;17.00;97.10;;;;;;4948739;28;20173;-60
2021/10/19 00:14:04;;;;;;;1.90;1.40;;;17.00;97.00;;;;;;4939918;28;20115;-61
2021/10/19 00:16:31;;;;;;;2.25;1.85;;;16.90;97.00;;;;;;4941917;28;20051;-61
2021/10/19 00:18:58;;;;;;;2.75;1.80;;;17.00;97.00;;;;;;4936798;29;20264;-62
2021/10/19 00:21:25;;;;;;;4.43;2.30;;;17.00;97.10;;;;;;4941149;29;20064;-60
2021/10/19 00:23:52;;;;;;;4.32;2.17;;;17.00;97.10;;;;;;4943209;28;20107;-61
2021/10/19 00:26:19;;;;;;;5.53;3.30;;;16.90;97.10;;;;;;4931481;29;20047;-60
2021/10/19 00:28:46;;;;;;;3.92;2.80;;;17.00;97.20;;;;;;4937705;29;20101;-60
2021/10/19 00:31:13;;;;;;;5.05;3.22;;;17.00;97.10;;;;;;4937162;28;20059;-62
2021/10/19 00:33:40;;;;;;;3.88;3.47;;;17.00;97.20;;;;;;4936137;29;20546;-60
2021/10/19 00:36:07;;;;;;;4.20;2.90;;;17.00;97.20;;;;;;4932145;28;20059;-60
2021/10/19 00:38:34;;;;;;;4.45;2.85;;;17.00;97.20;;;;;;4931323;29;20048;-59
2021/10/19 00:41:02;;;;;;;4.57;2.65;;;17.00;97.20;;;;;;4938169;29;20131;-60
2021/10/19 00:43:29;;;;;;;5.20;2.90;;;17.10;97.20;;;;;;4937679;28;20496;-60
2021/10/19 00:45:56;;;;;;;6.57;2.95;;;17.00;97.20;;;;;;4592168;28;10000144;-60
2021/10/19 00:48:27;;;;;;;4.00;3.30;;;17.10;97.10;;;;;;4950692;28;20103;-60
2021/10/19 00:50:54;;;;;;;4.30;3.20;;;17.10;97.20;;;;;;4936196;29;20096;-59
2021/10/19 00:53:21;;;;;;;2.58;2.28;;;17.00;97.20;;;;;;4927341;29;20047;-61
2021/10/19 00:55:48;;;;;;;3.45;2.88;;;17.10;97.20;;;;;;4941333;29;20134;-59
2021/10/19 00:58:15;;;;;;;4.60;2.55;;;17.10;97.20;;;;;;4935930;29;20595;-60
2021/10/19 01:00:42;;;;;;;6.15;2.95;;;17.10;97.40;;;;;;4939499;29;20079;-59
2021/10/19 01:03:09;;;;;;;5.32;2.33;;;17.10;97.20;;;;;;4950556;28;20083;-60
2021/10/19 01:05:36;;;;;;;3.88;2.58;;;17.10;97.20;;;;;;4945722;28;20051;-60
2021/10/19 01:08:05;;;;;;;4.70;3.10;;;17.20;97.20;;;;;;4943482;29;20421;-59
2021/10/19 01:10:32;;;;;;;3.17;2.67;;;17.20;97.30;;;;;;4954443;28;20090;-60
2021/10/19 01:12:59;;;;;;;4.03;2.20;;;17.20;97.30;;;;;;4923423;29;20134;-60
2021/10/19 01:15:25;;;;;;;5.05;2.40;;;17.20;97.20;;;;;;4948619;28;20055;-60
2021/10/19 01:17:52;;;;;;;5.93;2.60;;;17.20;97.10;;;;;;4936077;29;20051;-59
2021/10/19 01:20:24;;;;;;;4.20;2.20;;;17.20;97.10;;;;;;4938448;29;20052;-60
2021/10/19 01:22:52;;;;;;;2.53;2.33;;;17.20;97.10;;;;;;4936981;29;20047;-60
2021/10/19 01:25:20;;;;;;;4.00;3.47;;;17.30;97.40;;;;;;4937459;29;20691;-60
2021/10/19 01:27:48;;;;;;;7.20;3.50;;;17.30;97.20;;;;;;4936703;29;20067;-61
2021/10/19 01:30:15;;;;;;;3.38;2.85;;;17.20;97.20;;;;;;4936594;29;20099;-59
2021/10/19 01:32:43;;;;;;;3.83;3.28;;;17.30;97.10;;;;;;4936081;29;20047;-60
2021/10/19 01:35:10;;;;;;;3.88;3.22;;;17.30;97.10;;;;;;4935280;29;20142;-60
2021/10/19 01:37:40;;;;;;;3.70;3.05;;;17.30;97.10;;;;;;4936781;28;20051;-59
2021/10/19 01:40:09;;;;;;;5.30;2.63;;;17.30;97.10;;;;;;4934043;29;20055;-60
2021/10/19 01:42:36;;;;;;;6.03;2.50;;;17.30;97.10;;;;;;4941131;29;20054;-58
2021/10/19 01:45:03;;;;;;;2.95;2.55;;;17.30;97.10;;;;;;4955846;28;20106;-59
2021/10/19 01:47:30;;;;;;;3.60;2.00;;;17.30;97.10;;;;;;4934099;29;20130;-60
2021/10/19 01:49:57;;;;;;;3.35;2.45;;;17.30;97.10;;;;;;4933809;29;20093;-59
2021/10/19 01:52:24;;;;;;;3.65;2.15;;;17.30;97.10;;;;;;4939353;28;20103;-60
2021/10/19 01:54:51;;;;;;;2.40;1.73;;;17.30;97.10;;;;;;4937638;29;20083;-60
2021/10/19 01:57:18;;;;;;;4.28;1.95;;;17.30;97.00;;;;;;4947744;28;20087;-59
2021/10/19 01:59:45;;;;;;;1.40;1.30;;;17.30;97.00;;;;;;4936352;29;20048;-59
2021/10/19 02:02:18;;;;;;;3.90;1.13;;;17.30;97.00;;;;;;4932850;29;20051;-60
2021/10/19 02:04:45;;;;;;;2.15;1.33;;;17.30;97.00;;;;;;4933420;29;20113;-60
2021/10/19 02:07:11;;;;;;;3.33;1.00;;;17.30;96.90;;;;;;4934877;29;20484;-60
2021/10/19 02:09:38;;;;;;;2.33;1.20;;;17.40;96.90;;;;;;4935106;29;20107;-60
2021/10/19 02:12:05;;;;;;;2.33;1.00;;;17.30;96.90;;;;;;4937409;29;20742;-60
2021/10/19 02:14:32;;;;;;;1.08;0.60;;;17.40;96.90;;;;;;4939887;29;20500;-59
2021/10/19 02:16:59;;;;;;;0.55;0.43;;;17.40;97.10;;;;;;4933822;29;20811;-59
2021/10/19 02:19:28;;;;;;;1.00;0.60;;;17.40;96.80;;;;;;4940049;29;20087;-60
2021/10/19 02:21:55;;;;;;;1.55;0.90;;;17.40;96.80;;;;;;4947031;28;20168;-59
2021/10/19 02:24:22;;;;;;;1.10;0.68;;;17.40;96.80;;;;;;4936321;29;20047;-59
2021/10/19 02:26:49;;;;;;;1.50;0.70;;;17.40;96.80;;;;;;4932752;29;20479;-60
2021/10/19 02:29:16;;;;;;;1.05;0.70;;;17.40;96.70;;;;;;4935543;29;20186;-60
2021/10/19 02:31:43;;;;;;;0.80;0.52;;;17.40;96.70;;;;;;4936684;29;20043;-60
2021/10/19 02:34:10;;;;;;;0.80;0.70;;;17.40;96.80;;;;;;4940150;29;20509;-60
2021/10/19 02:36:37;;;;;;;0.60;0.60;;;17.40;96.70;;;;;;4932017;28;20110;-60
2021/10/19 02:39:06;;;;;;;1.20;0.75;;;17.50;96.70;;;;;;4936785;29;20519;-59
2021/10/19 02:41:33;;;;;;;0.95;0.60;;;17.50;96.70;;;;;;4941202;28;20543;-60
2021/10/19 02:44:00;;;;;;;2.22;0.82;;;17.50;96.90;;;;;;4931689;29;20373;-59
2021/10/19 02:46:28;;;;;;;2.47;0.88;;;17.50;96.70;;;;;;4941377;29;20570;-62
2021/10/19 02:48:55;;;;;;;1.60;0.93;;;17.50;96.70;;;;;;4943144;29;20062;-61
2021/10/19 02:51:22;;;;;;;1.85;0.80;;;17.50;96.70;;;;;;4941901;29;20110;-61
2021/10/19 02:53:49;;;;;;;2.90;1.25;;;17.50;96.70;;;;;;4942955;29;20495;-59
2021/10/19 02:56:16;;;;;;;2.83;1.05;;;17.50;96.70;;;;;;4940154;29;20048;-59
2021/10/19 02:58:43;;;;;;;1.10;1.00;;;17.50;96.70;;;;;;4935446;29;20130;-58
2021/10/19 03:01:09;;;;;;;1.40;0.88;;;17.50;96.70;;;;;;4941937;29;20059;-59
2021/10/19 03:03:36;;;;;;;1.40;1.00;;;17.50;96.70;;;;;;4933348;29;20519;-59
2021/10/19 03:06:03;;;;;;;1.10;1.00;;;17.50;96.70;;;;;;4955171;28;20079;-60
2021/10/19 03:08:30;;;;;;;1.23;0.68;;;17.50;96.70;;;;;;4930403;29;20115;-59
2021/10/19 03:10:57;;;;;;;2.65;0.65;;;17.50;96.70;;;;;;4941250;29;20427;-60
2021/10/19 03:13:24;;;;;;;1.23;0.65;;;17.50;96.70;;;;;;4953429;28;20799;-59
2021/10/19 03:16:11;;;;;;;1.15;1.00;;;17.60;96.80;;;;;;4938218;28;20051;-59
2021/10/19 03:18:38;;;;;;;1.20;0.68;;;17.50;96.70;;;;;;4938212;29;20043;-62
2021/10/19 03:21:05;;;;;;;1.75;0.95;;;17.50;96.70;;;;;;4937528;28;20106;-59
2021/10/19 03:23:32;;;;;;;0.93;0.70;;;17.50;96.70;;;;;;4939852;29;20055;-60
2021/10/19 03:26:00;;;;;;;0.95;0.70;;;17.50;96.70;;;;;;4934583;29;20563;-60
2021/10/19 03:28:27;;;;;;;2.13;0.90;;;17.50;96.80;;;;;;4935566;29;20051;-59
2021/10/19 03:30:53;;;;;;;1.38;0.82;;;17.50;96.80;;;;;;4935730;29;20051;-60
2021/10/19 03:33:20;;;;;;;3.28;0.85;;;17.50;97.00;;;;;;4934155;29;20047;-59
2021/10/19 03:35:48;;;;;;;0.95;0.68;;;17.50;96.80;;;;;;4932537;29;20052;-59
2021/10/19 03:38:15;;;;;;;1.48;0.90;;;17.50;96.80;;;;;;4936042;29;20142;-60
2021/10/19 03:40:41;;;;;;;2.25;0.70;;;17.50;96.80;;;;;;4935965;29;20103;-59
2021/10/19 03:43:08;;;;;;;1.17;0.55;;;17.50;96.80;;;;;;4939971;29;20180;-58
2021/10/19 03:45:35;;;;;;;0.60;0.60;;;17.50;96.90;;;;;;4933973;29;20090;-58
2021/10/19 03:48:02;;;;;;;2.63;0.68;;;17.50;96.90;;;;;;4924372;29;20086;-60
2021/10/19 03:50:29;;;;;;;1.15;0.68;;;17.50;96.90;;;;;;4932625;29;20047;-59
2021/10/19 03:52:57;;;;;;;0.32;0.32;;;17.50;96.80;;;;;;4933657;29;20048;-61
2021/10/19 03:55:24;;;;;;;0.47;0.47;;;17.50;97.00;;;;;;4932783;29;20052;-61
2021/10/19 03:57:51;;;;;;;0.40;0.30;;;17.50;96.90;;;;;;4933584;29;20044;-60
2021/10/19 04:00:18;;;;;;;0.73;0.38;;;17.50;96.90;;;;;;4947902;28;20558;-60
2021/10/19 04:02:45;;;;;;;1.15;0.40;;;17.50;96.90;;;;;;4933483;28;20059;-63
2021/10/19 04:05:12;;;;;;;2.03;0.32;;;17.60;97.00;;;;;;4933734;29;20518;-60
2021/10/19 04:07:45;;;;;;;0.30;0.30;;;17.60;96.90;;;;;;4933623;29;20043;-60
2021/10/19 04:10:12;;;;;;;0.30;0.30;;;17.60;96.90;;;;;;4932403;29;20423;-61
2021/10/19 04:12:39;;;;;;;2.58;0.50;;;17.60;96.90;;;;;;4928964;29;20055;-59
2021/10/19 04:15:06;;;;;;;0.65;0.50;;;17.60;96.80;;;;;;4931331;29;20075;-60
2021/10/19 04:17:33;;;;;;;0.38;0.35;;;17.60;97.00;;;;;;4936900;29;20130;-60
2021/10/19 04:20:00;;;;;;;1.00;0.50;;;17.60;96.80;;;;;;4944238;28;20068;-61
2021/10/19 04:22:26;;;;;;;1.40;0.40;;;17.60;96.90;;;;;;4940188;29;20043;-61
2021/10/19 04:24:54;;;;;;;0.93;0.50;;;17.70;96.80;;;;;;4939001;29;20052;-60
2021/10/19 04:27:21;;;;;;;0.47;0.47;;;17.70;96.80;;;;;;4939501;29;20102;-60
2021/10/19 04:29:48;;;;;;;3.42;0.40;;;17.70;96.80;;;;;;4941888;29;20117;-60
2021/10/19 04:32:15;;;;;;;0.55;0.50;;;17.70;96.80;;;;;;4953465;28;20047;-59
2021/10/19 04:34:42;;;;;;;0.60;0.40;;;17.70;96.80;;;;;;4939524;29;20044;-60
2021/10/19 04:37:08;;;;;;;1.13;0.50;;;17.70;96.70;;;;;;4937183;29;20106;-59
2021/10/19 04:39:35;;;;;;;3.22;0.55;;;17.70;96.70;;;;;;4942250;29;20044;-59
2021/10/19 04:42:03;;;;;;;1.10;0.50;;;17.70;96.70;;;;;;4941090;29;20059;-59
2021/10/19 04:44:30;;;;;;;1.30;0.35;;;17.80;96.70;;;;;;4941306;29;20506;-59
2021/10/19 04:46:57;;;;;;;1.92;0.80;;;17.80;96.70;;;;;;4939504;29;20059;-60
2021/10/19 04:49:24;;;;;;;2.78;1.05;;;17.80;96.70;;;;;;4945208;29;20479;-60
2021/10/19 04:51:51;;;;;;;0.93;0.32;;;17.80;96.70;;;;;;4941872;28;20047;-60
2021/10/19 04:54:18;;;;;;;2.80;0.40;;;17.80;96.70;;;;;;4943685;29;20122;-60
2021/10/19 04:56:45;;;;;;;0.68;0.40;;;17.80;96.60;;;;;;4939510;29;20496;-59
2021/10/19 04:59:12;;;;;;;1.08;0.75;;;17.80;96.70;;;;;;4940606;29;20043;-60
2021/10/19 05:01:39;;;;;;;0.45;0.45;;;17.80;96.70;;;;;;4944430;28;20458;-60
2021/10/19 05:04:07;;;;;;;1.45;0.40;;;17.80;96.70;;;;;;4939198;29;20500;-60
2021/10/19 05:06:33;;;;;;;0.82;0.40;;;17.80;96.60;;;;;;4940822;29;20059;-59
2021/10/19 05:09:00;;;;;;;0.55;0.30;;;17.80;96.70;;;;;;4938073;28;20135;-60
2021/10/19 05:11:27;;;;;;;0.40;0.40;;;17.80;96.70;;;;;;4941327;29;20142;-60
2021/10/19 05:13:54;;;;;;;1.55;0.45;;;17.80;96.60;;;;;;4936977;29;20131;-60
2021/10/19 05:16:21;;;;;;;0.50;0.35;;;17.80;96.50;;;;;;4939895;29;20078;-59
2021/10/19 05:18:48;;;;;;;0.82;0.47;;;17.90;96.50;;;;;;4941950;29;20418;-59
2021/10/19 05:21:15;;;;;;;0.50;0.40;;;17.90;96.50;;;;;;4939695;29;20055;-61
2021/10/19 05:23:42;;;;;;;1.30;0.60;;;17.80;96.50;;;;;;4941048;29;20054;-60
2021/10/19 05:26:09;;;;;;;0.80;0.60;;;17.90;96.50;;;;;;4935976;29;20052;-60
2021/10/19 05:28:36;;;;;;;4.03;0.80;;;17.90;96.50;;;;;;4935610;29;20047;-60
2021/10/19 05:31:03;;;;;;;1.52;0.68;;;17.90;96.50;;;;;;4937253;29;20122;-59
2021/10/19 05:33:30;;;;;;;2.63;0.60;;;17.90;96.50;;;;;;4936297;29;20047;-60
2021/10/19 05:35:57;;;;;;;9.55;3.92;;;17.90;96.40;;;;;;4936349;29;20216;-60
2021/10/19 05:38:24;;;;;;;1.35;0.68;;;17.90;96.40;;;;;;4936947;29;20048;-60
2021/10/19 05:40:51;;;;;;;2.05;0.90;;;17.90;96.40;;;;;;4938656;29;20130;-60
2021/10/19 05:43:18;;;;;;;1.25;0.82;;;17.90;96.40;;;;;;4951992;28;20051;-61
2021/10/19 05:45:45;;;;;;;1.33;0.82;;;17.90;96.40;;;;;;4951891;28;20047;-60
2021/10/19 05:48:12;;;;;;;2.58;0.80;;;17.90;96.70;;;;;;4935628;29;20146;-60
2021/10/19 05:50:38;;;;;;;2.85;0.98;;;17.90;96.40;;;;;;4936368;29;20156;-61
2021/10/19 05:53:05;;;;;;;1.75;0.68;;;17.90;96.40;;;;;;4937109;28;20437;-60
2021/10/19 05:55:32;;;;;;;1.40;0.90;;;17.90;96.40;;;;;;4933331;29;20491;-60
2021/10/19 05:57:59;;;;;;;3.88;0.70;;;17.90;96.40;;;;;;4938867;29;20082;-61
2021/10/19 06:00:46;;;;;;;1.52;0.65;;;17.90;96.40;;;;;;4933559;29;20054;-60
2021/10/19 06:03:13;;;;;;;0.88;0.63;;;17.90;96.40;;;;;;4936666;29;20055;-60
2021/10/19 06:05:41;;;;;;;2.65;0.73;;;17.90;96.40;;;;;;4930607;29;20111;-60
2021/10/19 06:08:07;;;;;;;3.83;1.52;;;17.90;96.40;;;;;;4935450;29;20055;-59
2021/10/19 06:10:35;;;;;;;3.47;0.85;;;17.90;96.40;;;;;;4946427;28;20127;-59
2021/10/19 06:13:03;;;;;;;3.78;1.13;;;17.90;96.40;;;;;;4934217;29;20056;-59
2021/10/19 06:15:33;;;;;;;1.05;0.70;;;17.90;96.40;;;;;;4935387;29;20115;-60
2021/10/19 06:18:05;;;;;;;1.05;0.70;;;17.90;96.30;;;;;;4931767;29;20064;-61
2021/10/19 06:20:33;;;;;;;1.85;0.60;;;17.90;96.30;;;;;;4940124;29;20110;-60
2021/10/19 06:23:04;;;;;;;4.00;0.85;;;17.90;96.30;;;;;;4931817;29;20048;-60
2021/10/19 06:25:34;;;;;;;1.63;0.73;;;18.00;96.20;;;;;;4939419;29;20047;-61
2021/10/19 06:28:02;;;;;;;0.68;0.65;;;18.00;96.20;;;;;;4950513;28;20110;-59
2021/10/19 06:30:28;;;;;;;1.90;0.70;;;18.00;96.20;;;;;;4934130;29;20087;-59
2021/10/19 06:32:55;;;;;;;0.73;0.65;;;18.00;96.10;;;;;;4940019;28;20079;-60
2021/10/19 06:35:22;;;;;;;1.05;0.57;;;18.00;96.10;;;;;;4932583;29;20079;-59
2021/10/19 06:37:49;;;;;;;6.78;1.35;;;18.00;96.20;;;;;;4940668;29;20070;-59
2021/10/19 06:40:18;;;;;;;2.30;0.65;;;18.00;96.20;;;;;;4932285;29;20047;-60
2021/10/19 06:42:45;;;;;;;0.73;0.73;;;18.00;96.20;;;;;;4931528;29;20140;-60
2021/10/19 06:45:12;;;;;;;0.90;0.57;;;18.00;96.20;;;;;;4931874;29;20289;-59
2021/10/19 06:47:39;;;;;;;2.47;0.77;;;18.00;96.20;;;;;;4927387;29;20106;-60
2021/10/19 06:50:06;;;;;;;1.15;0.40;;;18.00;96.20;;;;;;4930990;29;20130;-61
2021/10/19 06:52:36;;;;;;;1.88;0.70;;;18.00;96.20;;;;;;4932991;29;20147;-59
2021/10/19 06:55:06;;;;;;;4.05;0.70;;;18.00;96.10;;;;;;4920811;29;20496;-58
2021/10/19 06:57:43;;;;;;;0.75;0.50;;;18.00;96.20;;;;;;4930235;29;20059;-58
2021/10/19 07:00:11;;;;;;;2.30;0.52;;;18.00;96.10;;;;;;4935193;29;20047;-58
2021/10/19 07:02:43;;;;;;;3.72;0.90;;;18.00;96.10;;;;;;4931613;29;20503;-58
2021/10/19 07:05:10;;;;;;;0.47;0.43;;;18.00;96.10;;;;;;4930053;29;20047;-58
2021/10/19 07:07:41;;;;;;;0.80;0.50;;;18.00;96.10;;;;;;4928513;29;20151;-57
2021/10/19 07:10:09;;;;;;;0.88;0.50;;;18.10;96.40;;;;;;4932327;29;20047;-59
2021/10/19 07:12:36;;;;;;;3.40;0.80;;;18.00;96.10;;;;;;4926608;29;20119;-59
2021/10/19 07:15:04;;;;;;;0.75;0.50;;;18.00;96.10;;;;;;4938482;29;20075;-59
2021/10/19 07:17:31;;;;;;;1.60;0.52;;;18.00;96.10;;;;;;4939805;29;20074;-57
2021/10/19 07:19:57;;;;;;;2.95;0.50;;;18.00;96.10;;;;;;4933905;29;20079;-58
2021/10/19 07:22:28;;;;;;;2.33;0.52;;;18.10;96.10;;;;;;4933572;29;20099;-58
2021/10/19 07:24:55;;;;;;;2.22;0.80;;;18.10;96.10;;;;;;4595731;28;10000587;-59
2021/10/19 07:27:25;;;;;;;6.50;1.15;;;18.10;96.00;;;;;;4937083;29;20048;-59
2021/10/19 07:29:52;;;;;;;1.90;0.90;;;18.10;96.00;;;;;;4934934;29;20082;-59
2021/10/19 07:32:19;;;;;;;0.75;0.70;;;18.10;96.00;;;;;;4930190;29;20054;-60
2021/10/19 07:34:46;;;;;;;1.35;0.90;;;18.10;96.00;;;;;;4948596;28;20059;-59
2021/10/19 07:37:14;;;;;;;4.03;1.02;;;18.10;96.20;;;;;;4929747;29;20111;-59
2021/10/19 07:39:41;;;;;;;2.58;1.33;;;18.10;96.10;;;;;;4930739;29;20115;-60
2021/10/19 07:42:08;;;;;;;3.38;1.35;;;18.00;96.10;;;;;;4926578;29;20093;-60
2021/10/19 07:44:36;;;;;;;2.10;1.20;;;18.00;96.10;;;;;;4927860;29;20051;-57
2021/10/19 07:47:03;;;;;;;2.88;1.88;;;18.10;96.20;;;;;;4946602;28;20098;-59
2021/10/19 07:49:31;;;;;;;2.40;1.60;;;18.10;96.10;;;;;;4927732;29;20040;-59
2021/10/19 07:51:58;;;;;;;6.13;3.15;;;18.10;96.00;;;;;;4941023;28;20511;-58
2021/10/19 07:54:25;;;;;;;7.90;4.03;;;18.10;95.90;;;;;;4915457;29;20055;-59
2021/10/19 07:56:51;;;;;;;10.18;6.22;;;18.10;95.80;;;;;;4930467;29;20143;-58
2021/10/19 07:59:18;;;;;;;14.45;7.72;;;18.10;95.40;;;;;;4932004;29;20090;-57
2021/10/19 08:01:45;;;;;;;12.20;8.43;;;18.10;95.20;;;;;;4930691;29;20087;-59
2021/10/19 08:04:12;;;;;;;22.52;9.77;;;18.20;94.80;;;;;;4934047;29;20051;-59
2021/10/19 08:06:39;;;;;;;17.70;11.13;;;18.10;94.90;;;;;;4942047;28;20610;-59
2021/10/19 08:09:07;;;;;;;22.45;12.15;;;18.20;94.20;;;;;;4933334;28;20055;-59
2021/10/19 08:11:34;;;;;;;25.77;11.90;;;18.20;94.00;;;;;;4929981;29;20074;-59
2021/10/19 08:14:01;;;;;;;25.13;14.60;;;18.10;93.50;;;;;;4932243;29;20058;-59
2021/10/19 08:16:28;;;;;;;30.08;14.45;;;18.10;93.90;;;;;;4928827;28;20083;-59
2021/10/19 08:18:55;;;;;;;26.02;14.55;;;18.10;94.20;;;;;;4930973;29;20136;-58
2021/10/19 08:21:27;;;;;;;22.00;14.73;;;18.10;93.40;;;;;;4927631;29;20055;-59
2021/10/19 08:23:54;;;;;;;30.98;14.25;;;18.00;93.70;;;;;;4945850;28;20083;-59
2021/10/19 08:26:21;;;;;;;45.92;17.38;;;18.00;94.10;;;;;;4932320;29;20139;-58
2021/10/19 08:28:53;;;;;;;22.60;13.80;;;18.00;93.80;;;;;;4931260;29;20056;-59
2021/10/19 08:31:21;;;;;;;29.05;14.55;;;18.00;93.60;;;;;;4931096;29;20114;-59
2021/10/19 08:33:50;;;;;;;25.20;15.10;;;18.00;93.70;;;;;;4931192;29;20047;-58
2021/10/19 08:36:18;;;;;;;23.40;14.10;;;18.00;93.20;;;;;;4931253;29;20135;-57
2021/10/19 08:38:45;;;;;;;26.95;14.38;;;18.10;93.20;;;;;;4920222;29;20139;-58
2021/10/19 08:41:12;;;;;;;25.02;13.93;;;18.10;93.10;;;;;;4921661;29;20876;-59
2021/10/19 08:43:39;;;;;;;19.60;12.93;;;18.10;93.00;;;;;;4921147;28;20051;-58
2021/10/19 08:46:07;;;;;;;25.75;15.07;;;18.10;92.70;;;;;;4925735;29;20095;-63
2021/10/19 08:48:35;;;;;;;24.50;16.05;;;18.20;92.90;;;;;;4931600;29;20098;-58
2021/10/19 08:51:02;;;;;;;33.63;16.33;;;18.20;92.00;;;;;;4926465;28;20079;-59
2021/10/19 08:53:28;;;;;;;21.75;15.05;;;18.20;92.50;;;;;;4930008;29;20102;-59
2021/10/19 08:55:55;;;;;;;23.27;15.05;;;18.20;91.70;;;;;;4929339;28;20073;-59
2021/10/19 08:58:22;;;;;;;26.10;15.80;;;18.20;91.60;;;;;;4929411;29;20504;-58
2021/10/19 09:01:07;;;;;;;21.02;15.43;;;18.30;91.50;;;;;;4944696;28;20095;-57
2021/10/19 09:03:44;;;;;;;;;;;18.30;90.90;;;;;;4926229;29;20547;-58
2021/10/19 09:06:11;;;;;;;21.92;14.77;;;18.30;90.30;;;;;;4933722;28;19969;-59
2021/10/19 09:08:42;;;;;;;25.52;16.00;;;18.30;91.70;;;;;;4933082;29;20048;-58
2021/10/19 09:11:14;;;;;;;24.15;15.45;;;18.40;91.40;;;;;;4934310;29;20098;-58
2021/10/19 09:13:53;;;;;;;27.60;15.90;;;18.30;89.50;;;;;;4932709;29;20052;-57
2021/10/19 09:16:37;;;;;;;26.00;14.85;;;18.30;89.60;;;;;;4933278;29;20057;-59
2021/10/19 09:19:09;;;;;;;20.95;15.90;;;18.40;89.60;;;;;;4947526;28;20114;-59
2021/10/19 09:21:48;;;;;;;24.40;15.50;;;18.40;90.80;;;;;;4932735;29;20047;-58
2021/10/19 09:24:19;;;;;;;22.27;14.55;;;18.40;90.00;;;;;;4932827;29;20071;-58
2021/10/19 09:27:03;;;;;;;29.27;17.20;;;18.40;90.30;;;;;;4922344;28;20070;-58
2021/10/19 09:29:40;;;;;;;25.58;14.63;;;18.40;89.50;;;;;;4934515;29;20712;-57
2021/10/19 09:32:08;;;;;;;25.65;15.20;;;18.50;90.30;;;;;;4933080;29;20079;-58
2021/10/19 09:34:37;;;;;;;23.90;15.50;;;18.50;89.80;;;;;;4932683;29;20535;-58
2021/10/19 09:37:08;;;;;;;25.00;15.40;;;18.50;90.10;;;;;;4933182;29;20420;-58
2021/10/19 09:39:37;;;;;;;18.73;14.32;;;18.50;90.20;;;;;;4932555;29;20503;-58
2021/10/19 09:42:06;;;;;;;24.48;15.73;;;18.60;89.10;;;;;;4932887;29;20169;-57
2021/10/19 09:44:33;;;;;;;27.17;16.42;;;18.50;90.00;;;;;;4944384;28;20772;-57
2021/10/19 09:47:00;;;;;;;22.23;16.05;;;18.60;90.10;;;;;;4924756;29;20051;-58
2021/10/19 09:49:28;;;;;;;22.05;16.98;;;18.60;88.40;;;;;;4929080;29;20464;-58
2021/10/19 09:52:00;;;;;;;24.38;14.85;;;18.60;89.40;;;;;;4931585;29;20051;-58
2021/10/19 09:54:29;;;;;;;29.10;16.10;;;18.60;89.00;;;;;;4930969;28;20070;-58
2021/10/19 09:56:59;;;;;;;20.92;15.73;;;18.60;87.70;;;;;;4930777;29;20746;-58
2021/10/19 09:59:26;;;;;;;20.80;16.52;;;18.70;89.20;;;;;;4930415;29;20518;-59
2021/10/19 10:01:54;;;;;;;25.02;15.75;;;18.70;88.70;;;;;;4923962;29;20048;-60
2021/10/19 10:04:21;;;;;;;24.25;15.77;;;18.80;89.00;;;;;;4950637;28;20518;-60
2021/10/19 10:06:49;;;;;;;21.83;15.48;;;18.80;88.60;;;;;;4929913;29;20506;-57
2021/10/19 10:09:22;;;;;;;20.73;15.95;;;18.80;86.10;;;;;;4925449;29;20058;-59
2021/10/19 10:11:49;;;;;;;27.08;15.40;;;18.90;86.50;;;;;;4931370;29;20582;-58
2021/10/19 10:14:16;;;;;;;21.55;15.93;;;18.90;88.40;;;;;;4931682;29;20106;-58
2021/10/19 10:16:48;;;;;;;26.15;15.15;;;19.00;88.00;;;;;;4929327;28;20052;-58
2021/10/19 10:19:20;;;;;;;20.92;14.90;;;19.00;87.30;;;;;;4933617;29;20059;-58
2021/10/19 10:21:51;;;;;;;17.95;14.13;;;19.10;85.20;;;;;;4938389;28;20075;-58
2021/10/19 10:24:36;;;;;;;26.38;16.00;;;19.10;87.40;;;;;;4925258;29;20068;-59
2021/10/19 10:27:06;;;;;;;26.95;16.45;;;19.20;84.90;;;;;;4926497;29;20150;-59
2021/10/19 10:29:42;;;;;;;20.83;15.60;;;19.20;86.30;;;;;;4927906;29;20130;-58
2021/10/19 10:32:37;;;;;;;28.10;15.35;;;19.30;84.70;;;;;;4931890;29;20285;-58
2021/10/19 10:35:08;;;;;;;32.55;16.92;;;19.30;84.00;;;;;;4933774;29;20054;-58
2021/10/19 10:37:45;;;;;;;31.40;16.52;;;19.40;85.60;;;;;;4938679;29;20095;-57
2021/10/19 10:40:24;;;;;;;23.83;14.88;;;19.40;84.30;;;;;;4937886;28;20106;-58
2021/10/19 10:42:51;;;;;;;27.00;16.42;;;19.40;85.10;;;;;;4935560;29;20066;-58
2021/10/19 10:45:24;;;;;;;26.27;17.52;;;19.50;86.40;;;;;;4942308;28;20087;-58
2021/10/19 10:48:02;;;;;;;26.52;15.50;;;19.60;84.90;;;;;;4934167;29;20044;-63
2021/10/19 10:50:30;;;;;;;24.92;15.77;;;19.60;85.60;;;;;;4933460;28;20059;-55
2021/10/19 10:53:15;;;;;;;32.90;17.25;;;19.60;86.00;;;;;;4931948;29;20040;-58
2021/10/19 10:55:48;;;;;;;23.38;14.98;;;19.60;84.30;;;;;;4932859;28;20461;-57
2021/10/19 10:58:22;;;;;;;24.25;14.30;;;19.70;84.90;;;;;;4932506;29;20086;-57
2021/10/19 11:00:49;;;;;;;23.45;15.32;;;19.60;83.30;;;;;;4931232;29;20464;-58
2021/10/19 11:03:17;;;;;;;29.15;16.38;;;19.60;84.70;;;;;;4935903;28;20085;-57
2021/10/19 11:05:54;;;;;;;27.30;16.65;;;19.50;84.20;;;;;;4930487;29;20471;-57
2021/10/19 11:08:25;;;;;;;22.83;15.88;;;19.50;83.60;;;;;;4931687;29;20126;-59
2021/10/19 11:11:14;;;;;;;27.90;15.40;;;19.50;84.70;;;;;;4931672;28;20052;-57
2021/10/19 11:13:48;;;;;;;26.88;17.70;;;19.50;83.60;;;;;;4931622;29;20732;-58
2021/10/19 11:16:16;;;;;;;27.73;16.63;;;19.60;83.40;;;;;;4931304;29;20087;-57
2021/10/19 11:18:43;;;;;;;22.63;16.33;;;19.60;84.00;;;;;;4934565;28;20130;-58
2021/10/19 11:21:09;;;;;;;17.83;15.70;;;19.60;84.70;;;;;;4936902;28;20526;-57
2021/10/19 11:23:40;;;;;;;26.02;16.55;;;19.60;84.00;;;;;;4934374;28;20054;-57
2021/10/19 11:26:09;;;;;;;28.40;16.73;;;19.70;83.30;;;;;;4935610;29;20138;-58
2021/10/19 11:28:36;;;;;;;30.25;16.13;;;19.70;84.70;;;;;;4939744;29;20132;-58
2021/10/19 11:31:04;;;;;;;21.45;15.40;;;19.60;83.80;;;;;;4931872;29;20051;-57
2021/10/19 11:33:36;;;;;;;20.40;14.20;;;19.70;83.70;;;;;;4939000;29;20388;-58
2021/10/19 11:36:04;;;;;;;18.80;13.93;;;19.70;83.10;;;;;;4943907;29;20051;-59
2021/10/19 11:38:32;;;;;;;21.70;15.73;;;19.70;83.20;;;;;;4951002;28;20048;-58
2021/10/19 11:41:20;;;;;;;29.60;15.98;;;19.70;83.10;;;;;;4940269;29;20515;-58
2021/10/19 11:43:48;;;;;;;28.50;15.85;;;19.60;82.60;;;;;;4936840;29;20051;-56
2021/10/19 11:46:17;;;;;;;20.88;14.77;;;19.60;83.80;;;;;;4939501;29;20051;-59
2021/10/19 11:48:45;;;;;;;32.85;16.63;;;19.50;84.20;;;;;;4935103;29;20043;-58
2021/10/19 11:51:14;;;;;;;28.00;16.75;;;19.50;84.40;;;;;;4936715;29;20138;-56
2021/10/19 11:53:45;;;;;;;27.05;16.88;;;19.60;85.00;;;;;;4932388;29;20083;-58
2021/10/19 11:56:12;;;;;;;30.85;17.08;;;19.70;85.00;;;;;;4935234;29;20055;-57
2021/10/19 11:58:53;;;;;;;22.88;17.45;;;19.70;85.00;;;;;;4934407;28;20103;-59
2021/10/19 12:01:21;;;;;;;23.30;16.85;;;19.70;84.50;;;;;;4933401;29;20170;-58
2021/10/19 12:04:14;;;;;;;28.65;16.52;;;19.80;85.20;;;;;;4932605;29;20502;-57
2021/10/19 12:06:44;;;;;;;25.33;17.33;;;19.80;83.80;;;;;;4930783;29;20098;-58
2021/10/19 12:09:13;;;;;;;29.23;18.55;;;19.70;84.30;;;;;;4933602;29;20056;-56
2021/10/19 12:11:45;;;;;;;36.55;17.58;;;19.70;85.30;;;;;;4932441;29;20132;-57
2021/10/19 12:14:12;;;;;;;29.27;16.60;;;19.70;85.10;;;;;;4939510;28;20055;-56
2021/10/19 12:16:39;;;;;;;28.25;15.88;;;19.60;84.10;;;;;;4927201;29;20041;-58
2021/10/19 12:19:05;;;;;;;23.50;16.58;;;19.60;85.30;;;;;;4939668;29;21357;-58
2021/10/19 12:21:32;;;;;;;30.02;16.42;;;19.70;85.50;;;;;;4931126;29;20126;-57
2021/10/19 12:24:01;;;;;;;26.10;16.20;;;19.80;85.00;;;;;;4922013;29;20098;-57
2021/10/19 12:26:30;;;;;;;24.60;17.00;;;19.80;85.70;;;;;;4930720;29;20097;-57
2021/10/19 12:29:04;;;;;;;30.60;15.77;;;19.90;85.60;;;;;;4934480;29;20113;-57
2021/10/19 12:31:31;;;;;;;27.50;15.82;;;19.90;84.70;;;;;;4921625;29;20607;-58
2021/10/19 12:34:03;;;;;;;25.15;16.10;;;19.90;85.30;;;;;;4934909;29;20300;-58
2021/10/19 12:36:31;;;;;;;23.52;15.32;;;19.90;85.30;;;;;;4939434;29;20060;-59
2021/10/19 12:38:59;;;;;;;27.88;16.25;;;19.90;86.10;;;;;;4940002;29;20079;-56
2021/10/19 12:41:26;;;;;;;26.20;15.63;;;20.00;85.80;;;;;;4940526;28;20135;-56
2021/10/19 12:43:54;;;;;;;26.85;16.63;;;19.90;85.20;;;;;;4937814;28;20550;-57
2021/10/19 12:46:22;;;;;;;22.17;15.52;;;19.90;85.70;;;;;;4938701;29;20098;-57
2021/10/19 12:48:49;;;;;;;22.00;14.55;;;20.00;85.30;;;;;;4939296;29;20221;-57